sensor_id;sensor_type;location;lat;lon;timestamp;P1;durP1;ratioP1;P2;durP2;ratioP2
17832;SDS011;9041;49.718;21.798;2023-11-22T00:00:57;23.93;;;9.70;;
17832;SDS011;9041;49.718;21.798;2023-11-22T00:03:24;19.00;;;8.63;;
17832;SDS011;9041;49.718;21.798;2023-11-22T00:05:50;22.27;;;8.90;;
17832;SDS011;9041;49.718;21.798;2023-11-22T00:08:18;18.40;;;8.67;;
17832;SDS011;9041;49.718;21.798;2023-11-22T00:10:45;15.40;;;8.03;;
17832;SDS011;9041;49.718;21.798;2023-11-22T00:13:11;16.10;;;7.97;;
17832;SDS011;9041;49.718;21.798;2023-11-22T00:15:38;15.20;;;7.10;;
17832;SDS011;9041;49.718;21.798;2023-11-22T00:18:05;17.37;;;7.87;;
17832;SDS011;9041;49.718;21.798;2023-11-22T00:20:32;20.10;;;8.43;;
17832;SDS011;9041;49.718;21.798;2023-11-22T00:22:59;24.23;;;10.87;;
17832;SDS011;9041;49.718;21.798;2023-11-22T00:25:27;17.10;;;8.13;;
17832;SDS011;9041;49.718;21.798;2023-11-22T00:27:53;16.63;;;6.43;;
17832;SDS011;9041;49.718;21.798;2023-11-22T00:30:20;17.17;;;7.47;;
17832;SDS011;9041;49.718;21.798;2023-11-22T00:32:48;13.40;;;6.37;;
17832;SDS011;9041;49.718;21.798;2023-11-22T00:35:15;9.90;;;5.33;;
17832;SDS011;9041;49.718;21.798;2023-11-22T00:37:41;9.83;;;5.33;;
17832;SDS011;9041;49.718;21.798;2023-11-22T00:40:08;10.50;;;5.30;;
17832;SDS011;9041;49.718;21.798;2023-11-22T00:42:38;10.93;;;4.80;;
17832;SDS011;9041;49.718;21.798;2023-11-22T00:45:07;9.90;;;5.23;;
17832;SDS011;9041;49.718;21.798;2023-11-22T00:47:34;7.87;;;4.43;;
17832;SDS011;9041;49.718;21.798;2023-11-22T00:50:01;11.63;;;5.17;;
17832;SDS011;9041;49.718;21.798;2023-11-22T00:52:29;8.57;;;4.53;;
17832;SDS011;9041;49.718;21.798;2023-11-22T00:54:56;8.57;;;4.40;;
17832;SDS011;9041;49.718;21.798;2023-11-22T00:57:22;6.53;;;3.60;;
17832;SDS011;9041;49.718;21.798;2023-11-22T00:59:53;6.07;;;3.90;;
17832;SDS011;9041;49.718;21.798;2023-11-22T01:02:19;8.50;;;4.10;;
17832;SDS011;9041;49.718;21.798;2023-11-22T01:04:46;8.57;;;4.07;;
17832;SDS011;9041;49.718;21.798;2023-11-22T01:07:13;8.77;;;3.90;;
17832;SDS011;9041;49.718;21.798;2023-11-22T01:09:39;7.77;;;3.83;;
17832;SDS011;9041;49.718;21.798;2023-11-22T01:12:06;11.00;;;4.73;;
17832;SDS011;9041;49.718;21.798;2023-11-22T01:14:34;10.17;;;4.83;;
17832;SDS011;9041;49.718;21.798;2023-11-22T01:17:02;9.40;;;4.63;;
17832;SDS011;9041;49.718;21.798;2023-11-22T01:19:29;9.20;;;5.10;;
17832;SDS011;9041;49.718;21.798;2023-11-22T01:21:55;8.33;;;4.87;;
17832;SDS011;9041;49.718;21.798;2023-11-22T01:24:22;8.83;;;4.60;;
17832;SDS011;9041;49.718;21.798;2023-11-22T01:26:51;8.17;;;4.50;;
17832;SDS011;9041;49.718;21.798;2023-11-22T01:29:17;10.97;;;4.10;;
17832;SDS011;9041;49.718;21.798;2023-11-22T01:31:44;9.43;;;4.80;;
17832;SDS011;9041;49.718;21.798;2023-11-22T01:34:12;9.77;;;4.23;;
17832;SDS011;9041;49.718;21.798;2023-11-22T01:36:41;7.63;;;4.23;;
17832;SDS011;9041;49.718;21.798;2023-11-22T01:39:10;7.57;;;4.30;;
17832;SDS011;9041;49.718;21.798;2023-11-22T01:41:37;6.53;;;3.80;;
17832;SDS011;9041;49.718;21.798;2023-11-22T01:44:04;6.63;;;4.20;;
17832;SDS011;9041;49.718;21.798;2023-11-22T01:46:31;6.47;;;3.93;;
17832;SDS011;9041;49.718;21.798;2023-11-22T01:48:58;8.57;;;3.97;;
17832;SDS011;9041;49.718;21.798;2023-11-22T01:51:27;7.47;;;3.73;;
17832;SDS011;9041;49.718;21.798;2023-11-22T01:53:55;8.20;;;4.07;;
17832;SDS011;9041;49.718;21.798;2023-11-22T01:56:23;8.17;;;4.20;;
17832;SDS011;9041;49.718;21.798;2023-11-22T01:58:51;7.33;;;3.70;;
17832;SDS011;9041;49.718;21.798;2023-11-22T02:01:19;4.10;;;3.40;;
17832;SDS011;9041;49.718;21.798;2023-11-22T02:03:46;7.87;;;3.63;;
17832;SDS011;9041;49.718;21.798;2023-11-22T02:06:14;7.87;;;4.00;;
17832;SDS011;9041;49.718;21.798;2023-11-22T02:08:43;6.60;;;4.17;;
17832;SDS011;9041;49.718;21.798;2023-11-22T02:11:10;6.57;;;4.03;;
17832;SDS011;9041;49.718;21.798;2023-11-22T02:13:37;7.73;;;3.80;;
17832;SDS011;9041;49.718;21.798;2023-11-22T02:16:04;7.97;;;4.40;;
17832;SDS011;9041;49.718;21.798;2023-11-22T02:18:31;8.77;;;4.70;;
17832;SDS011;9041;49.718;21.798;2023-11-22T02:20:58;9.00;;;5.17;;
17832;SDS011;9041;49.718;21.798;2023-11-22T02:23:26;11.50;;;5.53;;
17832;SDS011;9041;49.718;21.798;2023-11-22T02:25:53;10.13;;;5.47;;
17832;SDS011;9041;49.718;21.798;2023-11-22T02:28:20;10.93;;;5.43;;
17832;SDS011;9041;49.718;21.798;2023-11-22T02:30:47;8.77;;;5.27;;
17832;SDS011;9041;49.718;21.798;2023-11-22T02:33:14;9.77;;;5.40;;
17832;SDS011;9041;49.718;21.798;2023-11-22T02:35:40;8.80;;;5.03;;
17832;SDS011;9041;49.718;21.798;2023-11-22T02:38:07;9.30;;;5.47;;
17832;SDS011;9041;49.718;21.798;2023-11-22T02:40:35;10.37;;;5.77;;
17832;SDS011;9041;49.718;21.798;2023-11-22T02:43:02;10.13;;;5.57;;
17832;SDS011;9041;49.718;21.798;2023-11-22T02:45:34;10.63;;;5.47;;
17832;SDS011;9041;49.718;21.798;2023-11-22T02:48:01;9.63;;;5.57;;
17832;SDS011;9041;49.718;21.798;2023-11-22T02:50:28;13.33;;;5.77;;
17832;SDS011;9041;49.718;21.798;2023-11-22T02:52:56;9.80;;;5.10;;
17832;SDS011;9041;49.718;21.798;2023-11-22T02:55:23;10.73;;;5.00;;
17832;SDS011;9041;49.718;21.798;2023-11-22T02:57:51;9.63;;;5.10;;
17832;SDS011;9041;49.718;21.798;2023-11-22T03:00:18;11.27;;;5.43;;
17832;SDS011;9041;49.718;21.798;2023-11-22T03:02:45;9.53;;;5.53;;
17832;SDS011;9041;49.718;21.798;2023-11-22T03:05:11;9.80;;;4.93;;
17832;SDS011;9041;49.718;21.798;2023-11-22T03:07:39;9.53;;;4.47;;
17832;SDS011;9041;49.718;21.798;2023-11-22T03:10:06;7.80;;;4.50;;
17832;SDS011;9041;49.718;21.798;2023-11-22T03:12:33;9.30;;;4.93;;
17832;SDS011;9041;49.718;21.798;2023-11-22T03:15:02;8.63;;;4.70;;
17832;SDS011;9041;49.718;21.798;2023-11-22T03:17:29;9.67;;;4.57;;
17832;SDS011;9041;49.718;21.798;2023-11-22T03:19:55;10.00;;;5.30;;
17832;SDS011;9041;49.718;21.798;2023-11-22T03:22:22;8.23;;;4.97;;
17832;SDS011;9041;49.718;21.798;2023-11-22T03:24:49;8.40;;;5.03;;
17832;SDS011;9041;49.718;21.798;2023-11-22T03:27:16;9.40;;;5.47;;
17832;SDS011;9041;49.718;21.798;2023-11-22T03:29:43;11.23;;;5.50;;
17832;SDS011;9041;49.718;21.798;2023-11-22T03:32:11;10.87;;;5.83;;
17832;SDS011;9041;49.718;21.798;2023-11-22T03:34:38;9.33;;;5.67;;
17832;SDS011;9041;49.718;21.798;2023-11-22T03:37:04;11.17;;;5.77;;
17832;SDS011;9041;49.718;21.798;2023-11-22T03:39:32;10.63;;;5.40;;
17832;SDS011;9041;49.718;21.798;2023-11-22T03:41:59;12.17;;;6.43;;
17832;SDS011;9041;49.718;21.798;2023-11-22T03:44:25;12.37;;;6.20;;
17832;SDS011;9041;49.718;21.798;2023-11-22T03:46:53;13.03;;;6.47;;
17832;SDS011;9041;49.718;21.798;2023-11-22T03:49:21;9.50;;;5.77;;
17832;SDS011;9041;49.718;21.798;2023-11-22T03:51:48;10.10;;;6.30;;
17832;SDS011;9041;49.718;21.798;2023-11-22T03:54:15;12.40;;;6.73;;
17832;SDS011;9041;49.718;21.798;2023-11-22T03:56:41;11.73;;;6.90;;
17832;SDS011;9041;49.718;21.798;2023-11-22T03:59:09;12.47;;;6.23;;
17832;SDS011;9041;49.718;21.798;2023-11-22T04:01:36;11.23;;;5.57;;
17832;SDS011;9041;49.718;21.798;2023-11-22T04:04:03;13.00;;;6.10;;
17832;SDS011;9041;49.718;21.798;2023-11-22T04:06:31;12.80;;;6.47;;
17832;SDS011;9041;49.718;21.798;2023-11-22T04:08:59;11.83;;;6.10;;
17832;SDS011;9041;49.718;21.798;2023-11-22T04:11:26;10.07;;;5.83;;
17832;SDS011;9041;49.718;21.798;2023-11-22T04:13:54;10.67;;;6.27;;
17832;SDS011;9041;49.718;21.798;2023-11-22T04:16:20;10.07;;;6.57;;
17832;SDS011;9041;49.718;21.798;2023-11-22T04:18:47;11.13;;;5.57;;
17832;SDS011;9041;49.718;21.798;2023-11-22T04:21:14;9.63;;;5.83;;
17832;SDS011;9041;49.718;21.798;2023-11-22T04:23:42;9.60;;;5.63;;
17832;SDS011;9041;49.718;21.798;2023-11-22T04:26:09;10.30;;;5.10;;
17832;SDS011;9041;49.718;21.798;2023-11-22T04:28:35;10.30;;;5.50;;
17832;SDS011;9041;49.718;21.798;2023-11-22T04:31:02;10.57;;;5.83;;
17832;SDS011;9041;49.718;21.798;2023-11-22T04:33:29;10.77;;;5.23;;
17832;SDS011;9041;49.718;21.798;2023-11-22T04:35:56;7.97;;;4.93;;
17832;SDS011;9041;49.718;21.798;2023-11-22T04:38:22;10.87;;;5.03;;
17832;SDS011;9041;49.718;21.798;2023-11-22T04:40:51;8.67;;;5.17;;
17832;SDS011;9041;49.718;21.798;2023-11-22T04:43:18;11.13;;;5.60;;
17832;SDS011;9041;49.718;21.798;2023-11-22T04:45:44;8.33;;;5.30;;
17832;SDS011;9041;49.718;21.798;2023-11-22T04:48:11;10.77;;;5.93;;
17832;SDS011;9041;49.718;21.798;2023-11-22T04:50:40;10.37;;;5.77;;
17832;SDS011;9041;49.718;21.798;2023-11-22T04:53:08;10.90;;;6.20;;
17832;SDS011;9041;49.718;21.798;2023-11-22T04:55:34;11.43;;;5.53;;
17832;SDS011;9041;49.718;21.798;2023-11-22T04:58:02;10.40;;;5.80;;
17832;SDS011;9041;49.718;21.798;2023-11-22T05:00:29;12.73;;;6.57;;
17832;SDS011;9041;49.718;21.798;2023-11-22T05:02:56;11.80;;;6.43;;
17832;SDS011;9041;49.718;21.798;2023-11-22T05:05:22;13.83;;;6.10;;
17832;SDS011;9041;49.718;21.798;2023-11-22T05:07:49;12.10;;;6.67;;
17832;SDS011;9041;49.718;21.798;2023-11-22T05:10:16;12.80;;;7.07;;
17832;SDS011;9041;49.718;21.798;2023-11-22T05:12:43;20.27;;;6.93;;
17832;SDS011;9041;49.718;21.798;2023-11-22T05:15:11;11.93;;;6.80;;
17832;SDS011;9041;49.718;21.798;2023-11-22T05:17:39;10.83;;;6.10;;
17832;SDS011;9041;49.718;21.798;2023-11-22T05:20:06;15.07;;;7.40;;
17832;SDS011;9041;49.718;21.798;2023-11-22T05:22:34;14.80;;;6.63;;
17832;SDS011;9041;49.718;21.798;2023-11-22T05:25:01;13.53;;;7.20;;
17832;SDS011;9041;49.718;21.798;2023-11-22T05:27:28;17.90;;;8.10;;
17832;SDS011;9041;49.718;21.798;2023-11-22T05:29:56;13.00;;;7.27;;
17832;SDS011;9041;49.718;21.798;2023-11-22T05:32:24;14.73;;;7.60;;
17832;SDS011;9041;49.718;21.798;2023-11-22T05:34:51;15.87;;;7.27;;
17832;SDS011;9041;49.718;21.798;2023-11-22T05:37:18;15.53;;;7.93;;
17832;SDS011;9041;49.718;21.798;2023-11-22T05:39:44;15.40;;;7.13;;
17832;SDS011;9041;49.718;21.798;2023-11-22T05:42:11;18.50;;;7.63;;
17832;SDS011;9041;49.718;21.798;2023-11-22T05:44:37;14.37;;;8.00;;
17832;SDS011;9041;49.718;21.798;2023-11-22T05:47:04;16.40;;;6.67;;
17832;SDS011;9041;49.718;21.798;2023-11-22T05:49:34;13.60;;;6.93;;
17832;SDS011;9041;49.718;21.798;2023-11-22T05:52:00;12.47;;;6.63;;
17832;SDS011;9041;49.718;21.798;2023-11-22T05:54:27;12.47;;;7.27;;
17832;SDS011;9041;49.718;21.798;2023-11-22T05:56:54;13.83;;;6.87;;
17832;SDS011;9041;49.718;21.798;2023-11-22T05:59:21;14.57;;;6.60;;
17832;SDS011;9041;49.718;21.798;2023-11-22T06:01:49;13.73;;;6.80;;
17832;SDS011;9041;49.718;21.798;2023-11-22T06:04:16;14.00;;;7.57;;
17832;SDS011;9041;49.718;21.798;2023-11-22T06:06:44;12.07;;;6.90;;
17832;SDS011;9041;49.718;21.798;2023-11-22T06:09:11;15.87;;;7.00;;
17832;SDS011;9041;49.718;21.798;2023-11-22T06:11:39;14.60;;;6.80;;
17832;SDS011;9041;49.718;21.798;2023-11-22T06:14:06;12.83;;;7.03;;
17832;SDS011;9041;49.718;21.798;2023-11-22T06:16:32;14.03;;;7.83;;
17832;SDS011;9041;49.718;21.798;2023-11-22T06:18:59;15.10;;;7.00;;
17832;SDS011;9041;49.718;21.798;2023-11-22T06:21:26;12.73;;;6.47;;
17832;SDS011;9041;49.718;21.798;2023-11-22T06:23:54;12.47;;;6.83;;
17832;SDS011;9041;49.718;21.798;2023-11-22T06:26:23;11.93;;;6.47;;
17832;SDS011;9041;49.718;21.798;2023-11-22T06:28:49;12.83;;;6.43;;
17832;SDS011;9041;49.718;21.798;2023-11-22T06:31:16;13.47;;;7.17;;
17832;SDS011;9041;49.718;21.798;2023-11-22T06:33:43;19.10;;;7.67;;
17832;SDS011;9041;49.718;21.798;2023-11-22T06:36:10;15.93;;;8.03;;
17832;SDS011;9041;49.718;21.798;2023-11-22T06:38:38;18.37;;;7.07;;
17832;SDS011;9041;49.718;21.798;2023-11-22T06:41:06;12.63;;;6.60;;
17832;SDS011;9041;49.718;21.798;2023-11-22T06:43:32;13.97;;;8.27;;
17832;SDS011;9041;49.718;21.798;2023-11-22T06:45:59;13.90;;;7.33;;
17832;SDS011;9041;49.718;21.798;2023-11-22T06:48:27;12.67;;;6.37;;
17832;SDS011;9041;49.718;21.798;2023-11-22T06:50:54;15.37;;;7.90;;
17832;SDS011;9041;49.718;21.798;2023-11-22T06:53:20;17.60;;;7.60;;
17832;SDS011;9041;49.718;21.798;2023-11-22T06:55:47;15.97;;;7.43;;
17832;SDS011;9041;49.718;21.798;2023-11-22T06:58:15;15.60;;;8.03;;
17832;SDS011;9041;49.718;21.798;2023-11-22T07:00:43;15.80;;;7.73;;
17832;SDS011;9041;49.718;21.798;2023-11-22T07:03:09;16.97;;;8.10;;
17832;SDS011;9041;49.718;21.798;2023-11-22T07:05:37;13.97;;;7.73;;
17832;SDS011;9041;49.718;21.798;2023-11-22T07:08:07;15.53;;;7.73;;
17832;SDS011;9041;49.718;21.798;2023-11-22T07:10:36;17.73;;;7.87;;
17832;SDS011;9041;49.718;21.798;2023-11-22T07:13:03;18.00;;;7.90;;
17832;SDS011;9041;49.718;21.798;2023-11-22T07:15:31;16.93;;;7.10;;
17832;SDS011;9041;49.718;21.798;2023-11-22T07:17:58;15.43;;;6.80;;
17832;SDS011;9041;49.718;21.798;2023-11-22T07:20:25;15.80;;;7.33;;
17832;SDS011;9041;49.718;21.798;2023-11-22T07:22:52;19.30;;;8.13;;
17832;SDS011;9041;49.718;21.798;2023-11-22T07:25:22;19.20;;;6.87;;
17832;SDS011;9041;49.718;21.798;2023-11-22T07:27:50;19.07;;;7.40;;
17832;SDS011;9041;49.718;21.798;2023-11-22T07:30:17;15.50;;;7.13;;
17832;SDS011;9041;49.718;21.798;2023-11-22T07:32:46;20.03;;;8.30;;
17832;SDS011;9041;49.718;21.798;2023-11-22T07:35:13;18.90;;;8.10;;
17832;SDS011;9041;49.718;21.798;2023-11-22T07:37:40;18.63;;;8.47;;
17832;SDS011;9041;49.718;21.798;2023-11-22T07:40:08;24.13;;;9.50;;
17832;SDS011;9041;49.718;21.798;2023-11-22T07:42:36;20.07;;;8.87;;
17832;SDS011;9041;49.718;21.798;2023-11-22T07:45:04;21.93;;;9.47;;
17832;SDS011;9041;49.718;21.798;2023-11-22T07:47:31;18.80;;;8.37;;
17832;SDS011;9041;49.718;21.798;2023-11-22T07:49:59;23.50;;;9.70;;
17832;SDS011;9041;49.718;21.798;2023-11-22T07:52:26;25.97;;;9.73;;
17832;SDS011;9041;49.718;21.798;2023-11-22T07:54:55;24.10;;;9.50;;
17832;SDS011;9041;49.718;21.798;2023-11-22T07:57:22;25.77;;;10.43;;
17832;SDS011;9041;49.718;21.798;2023-11-22T07:59:49;24.13;;;9.67;;
17832;SDS011;9041;49.718;21.798;2023-11-22T08:02:15;20.27;;;9.70;;
17832;SDS011;9041;49.718;21.798;2023-11-22T08:04:43;22.90;;;9.83;;
17832;SDS011;9041;49.718;21.798;2023-11-22T08:07:11;24.53;;;10.63;;
17832;SDS011;9041;49.718;21.798;2023-11-22T08:09:39;27.27;;;11.50;;
17832;SDS011;9041;49.718;21.798;2023-11-22T08:12:06;29.57;;;11.13;;
17832;SDS011;9041;49.718;21.798;2023-11-22T08:14:33;27.87;;;11.10;;
17832;SDS011;9041;49.718;21.798;2023-11-22T08:17:00;25.33;;;10.90;;
17832;SDS011;9041;49.718;21.798;2023-11-22T08:19:28;25.60;;;11.00;;
17832;SDS011;9041;49.718;21.798;2023-11-22T08:21:55;28.13;;;10.57;;
17832;SDS011;9041;49.718;21.798;2023-11-22T08:24:23;28.50;;;11.60;;
17832;SDS011;9041;49.718;21.798;2023-11-22T08:26:50;23.40;;;10.17;;
17832;SDS011;9041;49.718;21.798;2023-11-22T08:29:16;27.00;;;11.27;;
17832;SDS011;9041;49.718;21.798;2023-11-22T08:31:43;24.30;;;10.77;;
17832;SDS011;9041;49.718;21.798;2023-11-22T08:34:10;27.73;;;10.60;;
17832;SDS011;9041;49.718;21.798;2023-11-22T08:36:36;24.87;;;11.03;;
17832;SDS011;9041;49.718;21.798;2023-11-22T08:39:03;27.37;;;11.23;;
17832;SDS011;9041;49.718;21.798;2023-11-22T08:41:32;30.80;;;11.10;;
17832;SDS011;9041;49.718;21.798;2023-11-22T08:43:59;24.70;;;11.20;;
17832;SDS011;9041;49.718;21.798;2023-11-22T08:46:26;26.57;;;11.40;;
17832;SDS011;9041;49.718;21.798;2023-11-22T08:48:53;25.87;;;12.00;;
17832;SDS011;9041;49.718;21.798;2023-11-22T08:51:22;22.70;;;10.73;;
17832;SDS011;9041;49.718;21.798;2023-11-22T08:53:49;22.87;;;10.50;;
17832;SDS011;9041;49.718;21.798;2023-11-22T08:56:16;22.53;;;9.83;;
17832;SDS011;9041;49.718;21.798;2023-11-22T08:58:44;27.33;;;11.33;;
17832;SDS011;9041;49.718;21.798;2023-11-22T09:01:10;31.53;;;11.67;;
17832;SDS011;9041;49.718;21.798;2023-11-22T09:03:39;25.53;;;10.80;;
17832;SDS011;9041;49.718;21.798;2023-11-22T09:06:06;30.90;;;11.27;;
17832;SDS011;9041;49.718;21.798;2023-11-22T09:08:33;31.77;;;11.50;;
17832;SDS011;9041;49.718;21.798;2023-11-22T09:11:00;23.30;;;9.87;;
17832;SDS011;9041;49.718;21.798;2023-11-22T09:13:31;27.27;;;11.10;;
17832;SDS011;9041;49.718;21.798;2023-11-22T09:15:58;35.80;;;12.47;;
17832;SDS011;9041;49.718;21.798;2023-11-22T09:18:25;29.10;;;12.50;;
17832;SDS011;9041;49.718;21.798;2023-11-22T09:20:54;32.60;;;13.03;;
17832;SDS011;9041;49.718;21.798;2023-11-22T09:23:20;26.50;;;10.63;;
17832;SDS011;9041;49.718;21.798;2023-11-22T09:25:47;22.80;;;11.00;;
17832;SDS011;9041;49.718;21.798;2023-11-22T09:28:14;27.33;;;11.33;;
17832;SDS011;9041;49.718;21.798;2023-11-22T09:30:41;33.10;;;11.80;;
17832;SDS011;9041;49.718;21.798;2023-11-22T09:33:10;31.47;;;11.97;;
17832;SDS011;9041;49.718;21.798;2023-11-22T09:35:39;26.93;;;11.27;;
17832;SDS011;9041;49.718;21.798;2023-11-22T09:38:08;24.20;;;11.17;;
17832;SDS011;9041;49.718;21.798;2023-11-22T09:40:37;28.47;;;12.03;;
17832;SDS011;9041;49.718;21.798;2023-11-22T09:43:06;26.90;;;11.40;;
17832;SDS011;9041;49.718;21.798;2023-11-22T09:45:33;30.00;;;11.47;;
17832;SDS011;9041;49.718;21.798;2023-11-22T09:48:03;34.17;;;11.63;;
17832;SDS011;9041;49.718;21.798;2023-11-22T09:50:39;26.60;;;11.27;;
17832;SDS011;9041;49.718;21.798;2023-11-22T09:53:22;29.73;;;10.60;;
17832;SDS011;9041;49.718;21.798;2023-11-22T09:55:52;29.87;;;12.43;;
17832;SDS011;9041;49.718;21.798;2023-11-22T09:58:19;31.97;;;10.77;;
17832;SDS011;9041;49.718;21.798;2023-11-22T10:00:46;26.07;;;10.50;;
17832;SDS011;9041;49.718;21.798;2023-11-22T10:03:13;25.50;;;10.80;;
17832;SDS011;9041;49.718;21.798;2023-11-22T10:05:43;25.03;;;10.23;;
17832;SDS011;9041;49.718;21.798;2023-11-22T10:08:10;25.43;;;10.67;;
17832;SDS011;9041;49.718;21.798;2023-11-22T10:10:37;24.93;;;10.37;;
17832;SDS011;9041;49.718;21.798;2023-11-22T10:13:05;26.63;;;11.00;;
17832;SDS011;9041;49.718;21.798;2023-11-22T10:15:31;22.93;;;9.90;;
17832;SDS011;9041;49.718;21.798;2023-11-22T10:17:58;23.17;;;10.37;;
17832;SDS011;9041;49.718;21.798;2023-11-22T10:20:35;26.90;;;10.07;;
17832;SDS011;9041;49.718;21.798;2023-11-22T10:23:04;20.67;;;9.77;;
17832;SDS011;9041;49.718;21.798;2023-11-22T10:25:35;28.63;;;9.87;;
17832;SDS011;9041;49.718;21.798;2023-11-22T10:28:02;24.97;;;9.97;;
17832;SDS011;9041;49.718;21.798;2023-11-22T10:30:29;26.30;;;9.63;;
17832;SDS011;9041;49.718;21.798;2023-11-22T10:32:55;19.50;;;8.67;;
17832;SDS011;9041;49.718;21.798;2023-11-22T10:35:24;22.00;;;10.23;;
17832;SDS011;9041;49.718;21.798;2023-11-22T10:37:52;20.70;;;9.63;;
17832;SDS011;9041;49.718;21.798;2023-11-22T10:40:20;26.70;;;8.43;;
17832;SDS011;9041;49.718;21.798;2023-11-22T10:42:46;23.83;;;9.97;;
17832;SDS011;9041;49.718;21.798;2023-11-22T10:45:17;26.07;;;10.70;;
17832;SDS011;9041;49.718;21.798;2023-11-22T10:47:44;21.53;;;10.43;;
17832;SDS011;9041;49.718;21.798;2023-11-22T10:50:12;22.10;;;10.43;;
17832;SDS011;9041;49.718;21.798;2023-11-22T10:52:40;21.73;;;9.63;;
17832;SDS011;9041;49.718;21.798;2023-11-22T10:55:08;18.87;;;9.63;;
17832;SDS011;9041;49.718;21.798;2023-11-22T10:57:49;26.67;;;10.47;;
17832;SDS011;9041;49.718;21.798;2023-11-22T11:00:18;24.53;;;9.40;;
17832;SDS011;9041;49.718;21.798;2023-11-22T11:02:50;21.23;;;9.70;;
17832;SDS011;9041;49.718;21.798;2023-11-22T11:05:21;25.90;;;10.60;;
17832;SDS011;9041;49.718;21.798;2023-11-22T11:07:54;47.00;;;18.70;;
17832;SDS011;9041;49.718;21.798;2023-11-22T11:10:25;29.07;;;12.80;;
17832;SDS011;9041;49.718;21.798;2023-11-22T11:12:52;41.83;;;18.10;;
17832;SDS011;9041;49.718;21.798;2023-11-22T11:15:19;30.43;;;10.97;;
17832;SDS011;9041;49.718;21.798;2023-11-22T11:17:46;26.17;;;11.77;;
17832;SDS011;9041;49.718;21.798;2023-11-22T11:20:15;26.57;;;12.20;;
17832;SDS011;9041;49.718;21.798;2023-11-22T11:22:46;25.63;;;11.53;;
17832;SDS011;9041;49.718;21.798;2023-11-22T11:25:14;26.53;;;10.93;;
17832;SDS011;9041;49.718;21.798;2023-11-22T11:27:42;28.43;;;11.10;;
17832;SDS011;9041;49.718;21.798;2023-11-22T11:33:08;23.53;;;10.50;;
17832;SDS011;9041;49.718;21.798;2023-11-22T11:35:38;24.10;;;10.40;;
17832;SDS011;9041;49.718;21.798;2023-11-22T11:38:05;22.30;;;10.27;;
17832;SDS011;9041;49.718;21.798;2023-11-22T11:40:34;25.23;;;10.27;;
17832;SDS011;9041;49.718;21.798;2023-11-22T11:43:05;28.73;;;11.43;;
17832;SDS011;9041;49.718;21.798;2023-11-22T11:45:42;24.13;;;10.47;;
17832;SDS011;9041;49.718;21.798;2023-11-22T11:48:12;28.87;;;11.50;;
17832;SDS011;9041;49.718;21.798;2023-11-22T11:50:39;23.57;;;11.37;;
17832;SDS011;9041;49.718;21.798;2023-11-22T11:53:05;27.40;;;12.00;;
17832;SDS011;9041;49.718;21.798;2023-11-22T11:55:32;25.53;;;11.20;;
17832;SDS011;9041;49.718;21.798;2023-11-22T11:58:03;25.43;;;10.67;;
17832;SDS011;9041;49.718;21.798;2023-11-22T12:00:34;26.83;;;11.33;;
17832;SDS011;9041;49.718;21.798;2023-11-22T12:03:05;31.27;;;11.60;;
17832;SDS011;9041;49.718;21.798;2023-11-22T12:05:32;22.90;;;9.07;;
17832;SDS011;9041;49.718;21.798;2023-11-22T12:07:59;25.23;;;10.07;;
17832;SDS011;9041;49.718;21.798;2023-11-22T12:10:25;18.77;;;8.43;;
17832;SDS011;9041;49.718;21.798;2023-11-22T12:12:52;18.27;;;8.70;;
17832;SDS011;9041;49.718;21.798;2023-11-22T12:15:20;22.80;;;9.33;;
17832;SDS011;9041;49.718;21.798;2023-11-22T12:17:48;24.20;;;10.27;;
17832;SDS011;9041;49.718;21.798;2023-11-22T12:20:16;25.90;;;10.40;;
17832;SDS011;9041;49.718;21.798;2023-11-22T12:22:46;26.63;;;10.43;;
17832;SDS011;9041;49.718;21.798;2023-11-22T12:25:13;20.83;;;9.47;;
17832;SDS011;9041;49.718;21.798;2023-11-22T12:27:41;22.57;;;9.90;;
17832;SDS011;9041;49.718;21.798;2023-11-22T12:30:09;25.80;;;10.40;;
17832;SDS011;9041;49.718;21.798;2023-11-22T12:32:40;29.13;;;11.73;;
17832;SDS011;9041;49.718;21.798;2023-11-22T12:35:08;29.17;;;11.03;;
17832;SDS011;9041;49.718;21.798;2023-11-22T12:37:54;26.53;;;10.43;;
17832;SDS011;9041;49.718;21.798;2023-11-22T12:40:21;24.77;;;10.27;;
17832;SDS011;9041;49.718;21.798;2023-11-22T12:42:48;25.53;;;10.47;;
17832;SDS011;9041;49.718;21.798;2023-11-22T12:45:19;23.23;;;10.27;;
17832;SDS011;9041;49.718;21.798;2023-11-22T12:47:50;22.03;;;9.47;;
17832;SDS011;9041;49.718;21.798;2023-11-22T12:50:29;22.67;;;10.27;;
17832;SDS011;9041;49.718;21.798;2023-11-22T12:52:57;25.23;;;9.30;;
17832;SDS011;9041;49.718;21.798;2023-11-22T12:55:24;22.33;;;10.00;;
17832;SDS011;9041;49.718;21.798;2023-11-22T12:57:56;29.13;;;10.33;;
17832;SDS011;9041;49.718;21.798;2023-11-22T13:00:23;29.20;;;10.50;;
17832;SDS011;9041;49.718;21.798;2023-11-22T13:02:52;19.57;;;8.43;;
17832;SDS011;9041;49.718;21.798;2023-11-22T13:05:19;22.10;;;9.87;;
17832;SDS011;9041;49.718;21.798;2023-11-22T13:07:46;23.50;;;10.47;;
17832;SDS011;9041;49.718;21.798;2023-11-22T13:10:14;22.10;;;8.97;;
17832;SDS011;9041;49.718;21.798;2023-11-22T13:12:41;24.40;;;10.17;;
17832;SDS011;9041;49.718;21.798;2023-11-22T13:15:09;28.47;;;9.67;;
17832;SDS011;9041;49.718;21.798;2023-11-22T13:17:36;23.30;;;10.57;;
17832;SDS011;9041;49.718;21.798;2023-11-22T13:20:07;24.43;;;10.23;;
17832;SDS011;9041;49.718;21.798;2023-11-22T13:22:39;21.40;;;8.83;;
17832;SDS011;9041;49.718;21.798;2023-11-22T13:25:06;18.33;;;8.17;;
17832;SDS011;9041;49.718;21.798;2023-11-22T13:27:35;24.60;;;8.67;;
17832;SDS011;9041;49.718;21.798;2023-11-22T13:30:02;20.00;;;8.03;;
17832;SDS011;9041;49.718;21.798;2023-11-22T13:32:29;22.23;;;8.17;;
17832;SDS011;9041;49.718;21.798;2023-11-22T13:34:56;19.47;;;8.33;;
17832;SDS011;9041;49.718;21.798;2023-11-22T13:37:24;16.90;;;7.57;;
17832;SDS011;9041;49.718;21.798;2023-11-22T13:39:51;19.77;;;8.00;;
17832;SDS011;9041;49.718;21.798;2023-11-22T13:42:18;19.27;;;7.33;;
17832;SDS011;9041;49.718;21.798;2023-11-22T13:44:44;18.60;;;7.77;;
17832;SDS011;9041;49.718;21.798;2023-11-22T13:47:11;21.17;;;8.37;;
17832;SDS011;9041;49.718;21.798;2023-11-22T13:49:39;19.37;;;8.43;;
17832;SDS011;9041;49.718;21.798;2023-11-22T13:52:07;17.67;;;7.40;;
17832;SDS011;9041;49.718;21.798;2023-11-22T13:54:35;16.37;;;6.83;;
17832;SDS011;9041;49.718;21.798;2023-11-22T13:57:04;19.17;;;7.50;;
17832;SDS011;9041;49.718;21.798;2023-11-22T13:59:31;15.87;;;7.10;;
17832;SDS011;9041;49.718;21.798;2023-11-22T14:01:58;21.57;;;8.27;;
17832;SDS011;9041;49.718;21.798;2023-11-22T14:04:24;16.87;;;6.97;;
17832;SDS011;9041;49.718;21.798;2023-11-22T14:06:51;18.00;;;7.93;;
17832;SDS011;9041;49.718;21.798;2023-11-22T14:09:18;16.73;;;7.10;;
17832;SDS011;9041;49.718;21.798;2023-11-22T14:11:46;15.73;;;6.57;;
17832;SDS011;9041;49.718;21.798;2023-11-22T14:14:14;13.40;;;5.87;;
17832;SDS011;9041;49.718;21.798;2023-11-22T14:16:43;13.37;;;5.43;;
17832;SDS011;9041;49.718;21.798;2023-11-22T14:19:11;12.33;;;5.40;;
17832;SDS011;9041;49.718;21.798;2023-11-22T14:21:38;13.37;;;5.77;;
17832;SDS011;9041;49.718;21.798;2023-11-22T14:24:05;12.70;;;6.03;;
17832;SDS011;9041;49.718;21.798;2023-11-22T14:26:33;14.97;;;6.90;;
17832;SDS011;9041;49.718;21.798;2023-11-22T14:29:02;11.60;;;5.87;;
17832;SDS011;9041;49.718;21.798;2023-11-22T14:31:28;12.90;;;5.80;;
17832;SDS011;9041;49.718;21.798;2023-11-22T14:33:55;14.47;;;5.93;;
17832;SDS011;9041;49.718;21.798;2023-11-22T14:36:22;15.80;;;6.17;;
17832;SDS011;9041;49.718;21.798;2023-11-22T14:38:49;12.83;;;6.30;;